Time;durP1;ratioP1;P1;durP2;ratioP2;P2;SDS_P1;SDS_P2;PMS_P1;PMS_P2;Temp;Humidity;BMP_temperature;BMP_pressure;BME280_temperature;BME280_humidity;BME280_pressure;Samples;Min_cycle;Max_cycle;Signal;HPM_P1;HPM_P2
2023/03/14 02:51:29;;;;;;;3.63;1.30;;;10.10;86.80;;;;;;5776969;23;20489;-82
2023/03/14 02:53:55;;;;;;;3.42;1.20;;;10.10;87.00;;;;;;4977002;28;20396;-81
2023/03/14 02:56:20;;;;;;;2.45;1.17;;;10.10;87.00;;;;;;4977386;28;20023;-82
2023/03/14 02:58:46;;;;;;;2.22;1.15;;;10.10;86.80;;;;;;4993847;28;20576;-82
2023/03/14 03:01:11;;;;;;;4.05;1.27;;;10.10;86.80;;;;;;4976063;28;20484;-82
2023/03/14 03:03:37;;;;;;;2.80;1.00;;;10.10;86.70;;;;;;4995129;28;20496;-82
2023/03/14 03:06:03;;;;;;;2.42;1.00;;;10.10;86.70;;;;;;4977984;28;20038;-81
2023/03/14 03:08:29;;;;;;;2.80;1.00;;;10.10;86.80;;;;;;4996097;28;20038;-81
2023/03/14 03:10:56;;;;;;;4.35;1.40;;;10.10;86.80;;;;;;4977904;28;20428;-81
2023/03/14 03:13:21;;;;;;;2.70;0.93;;;10.00;86.70;;;;;;4977203;28;20125;-81
2023/03/14 03:15:47;;;;;;;3.03;1.10;;;10.10;86.80;;;;;;4994858;28;20059;-81
2023/03/14 03:18:12;;;;;;;2.67;0.95;;;10.10;86.70;;;;;;4978635;28;20024;-80
2023/03/14 03:20:38;;;;;;;2.85;1.08;;;10.10;86.70;;;;;;4979210;28;20477;-81
2023/03/14 03:23:03;;;;;;;2.70;1.15;;;10.10;86.70;;;;;;4978625;28;20093;-82
2023/03/14 03:25:30;;;;;;;3.17;1.15;;;10.10;86.70;;;;;;4996512;28;20033;-81
2023/03/14 03:27:55;;;;;;;1.40;0.80;;;10.10;86.70;;;;;;4996444;28;20061;-81
2023/03/14 03:30:21;;;;;;;1.38;0.80;;;10.10;86.90;;;;;;4995363;28;20029;-81
2023/03/14 03:32:47;;;;;;;2.17;0.98;;;10.10;86.80;;;;;;4995478;28;20512;-83
2023/03/14 03:35:13;;;;;;;3.00;0.90;;;10.10;86.90;;;;;;4975990;28;20117;-81
2023/03/14 03:37:38;;;;;;;2.53;0.80;;;10.10;86.90;;;;;;4996710;28;20077;-83
2023/03/14 03:40:05;;;;;;;2.70;0.82;;;10.10;86.90;;;;;;4995404;28;20030;-80
2023/03/14 03:42:32;;;;;;;1.45;0.80;;;10.10;86.90;;;;;;4994935;28;20022;-81
2023/03/14 03:44:58;;;;;;;2.58;0.85;;;10.10;87.00;;;;;;4977189;28;20030;-83
2023/03/14 03:47:24;;;;;;;2.53;0.90;;;10.10;87.10;;;;;;4976671;28;20552;-81
2023/03/14 03:49:49;;;;;;;2.38;0.88;;;10.10;87.10;;;;;;4976836;28;20117;-81
2023/03/14 03:52:15;;;;;;;2.83;0.80;;;10.10;87.10;;;;;;4976693;28;20036;-81
2023/03/14 03:54:40;;;;;;;2.28;0.80;;;10.10;87.00;;;;;;4994884;28;20113;-81
2023/03/14 03:57:06;;;;;;;1.70;0.77;;;10.10;86.90;;;;;;4976838;28;20396;-81
2023/03/14 03:59:31;;;;;;;1.85;0.85;;;10.10;86.90;;;;;;4993663;28;20022;-83
2023/03/14 04:01:57;;;;;;;2.00;0.80;;;10.10;87.00;;;;;;4977184;28;20102;-80
2023/03/14 04:04:22;;;;;;;1.77;0.80;;;10.10;87.00;;;;;;4994038;28;20018;-81
2023/03/14 04:06:48;;;;;;;1.92;0.73;;;10.10;86.90;;;;;;4993058;28;20054;-80
2023/03/14 04:09:13;;;;;;;1.58;0.70;;;10.10;86.90;;;;;;4994433;28;20057;-81
2023/03/14 04:11:39;;;;;;;2.00;0.70;;;10.10;86.90;;;;;;4993822;28;20077;-82
2023/03/14 04:14:04;;;;;;;1.52;0.88;;;10.10;86.90;;;;;;4994211;28;20034;-82
2023/03/14 04:16:33;;;;;;;1.35;0.70;;;10.10;86.90;;;;;;4976405;28;20072;-83
2023/03/14 04:18:59;;;;;;;1.85;0.60;;;10.10;86.80;;;;;;4993901;28;20018;-82
2023/03/14 04:21:24;;;;;;;1.63;0.57;;;10.10;86.90;;;;;;4976029;28;20026;-83
2023/03/14 04:23:50;;;;;;;2.83;1.33;;;10.10;87.10;;;;;;4993708;28;20392;-83
2023/03/14 04:26:16;;;;;;;1.70;0.80;;;10.10;87.20;;;;;;4976106;28;20030;-81
2023/03/14 04:28:42;;;;;;;2.45;0.80;;;10.10;87.10;;;;;;4972513;28;20133;-77
2023/03/14 04:31:16;;;;;;;2.67;0.70;;;10.10;87.10;;;;;;4990942;28;20089;-82
2023/03/14 04:33:42;;;;;;;2.78;0.77;;;10.10;87.00;;;;;;4974785;28;20400;-78
2023/03/14 04:36:08;;;;;;;2.88;0.90;;;10.10;87.10;;;;;;4967002;28;20039;-79
2023/03/14 04:38:34;;;;;;;1.95;0.70;;;10.10;87.10;;;;;;4953659;28;20023;-82
2023/03/14 04:41:00;;;;;;;1.52;0.60;;;10.10;87.10;;;;;;4978778;28;20073;-79
2023/03/14 04:43:26;;;;;;;1.30;0.60;;;10.10;87.10;;;;;;4952620;28;20027;-81
2023/03/14 04:45:53;;;;;;;1.95;0.65;;;10.10;87.00;;;;;;4949344;28;20031;-78
2023/03/14 04:48:19;;;;;;;2.67;0.60;;;10.10;87.10;;;;;;4966373;28;20035;-82
2023/03/14 04:50:46;;;;;;;1.55;0.75;;;10.10;87.20;;;;;;4947627;28;20563;-82
2023/03/14 04:53:12;;;;;;;2.60;0.80;;;10.10;87.10;;;;;;4947913;28;20113;-78
2023/03/14 04:55:37;;;;;;;2.38;0.80;;;10.10;87.10;;;;;;4947384;28;20556;-80
2023/03/14 04:58:03;;;;;;;2.53;0.82;;;10.10;87.10;;;;;;4965280;28;20552;-84
2023/03/14 05:00:29;;;;;;;1.42;0.57;;;10.10;87.00;;;;;;4951503;28;20030;-81
2023/03/14 05:02:54;;;;;;;1.77;0.70;;;10.10;87.00;;;;;;4950834;28;20038;-78
2023/03/14 05:05:20;;;;;;;1.75;0.80;;;10.10;87.00;;;;;;4971279;28;20075;-82
2023/03/14 05:07:45;;;;;;;2.13;0.70;;;10.10;86.90;;;;;;4954109;28;20091;-79
2023/03/14 05:10:11;;;;;;;1.63;0.65;;;10.10;86.90;;;;;;4954622;28;20039;-78
2023/03/14 05:12:36;;;;;;;1.50;0.57;;;10.10;86.90;;;;;;4954356;28;20027;-79
2023/03/14 05:15:04;;;;;;;2.15;0.80;;;10.10;86.90;;;;;;4952572;28;20015;-81
2023/03/14 05:17:29;;;;;;;3.08;0.80;;;10.10;86.90;;;;;;4984020;28;20023;-80
2023/03/14 05:19:55;;;;;;;2.20;0.70;;;10.10;86.90;;;;;;4977901;28;20045;-79
2023/03/14 05:22:20;;;;;;;1.85;0.80;;;10.10;86.90;;;;;;4979893;28;20027;-80
2023/03/14 05:24:46;;;;;;;1.73;0.68;;;10.10;87.00;;;;;;4975474;28;20032;-79
2023/03/14 05:27:11;;;;;;;1.90;0.70;;;10.10;87.10;;;;;;4987156;28;20027;-79
2023/03/14 05:29:37;;;;;;;2.97;0.60;;;10.10;87.20;;;;;;4965482;28;20078;-81
2023/03/14 05:32:02;;;;;;;1.30;0.60;;;10.10;87.20;;;;;;4962266;28;20919;-79
2023/03/14 05:34:28;;;;;;;1.52;0.70;;;10.10;87.20;;;;;;4988279;28;20031;-79
2023/03/14 05:36:54;;;;;;;2.38;0.77;;;10.10;87.10;;;;;;4977936;28;20113;-80
2023/03/14 05:39:20;;;;;;;2.25;0.70;;;10.10;87.00;;;;;;4979039;28;20026;-79
2023/03/14 05:41:45;;;;;;;1.30;0.70;;;10.10;87.00;;;;;;4993005;28;20026;-80
2023/03/14 05:44:11;;;;;;;1.30;0.60;;;10.10;87.00;;;;;;4977377;28;20046;-81
2023/03/14 05:46:36;;;;;;;1.98;0.65;;;10.00;87.00;;;;;;4975729;28;20030;-80
2023/03/14 05:49:02;;;;;;;1.42;0.70;;;10.10;87.10;;;;;;4992008;28;20026;-79
2023/03/14 05:51:27;;;;;;;2.08;0.80;;;10.10;87.10;;;;;;4974399;28;20097;-80
2023/03/14 05:53:53;;;;;;;2.78;0.75;;;10.10;87.10;;;;;;4991957;28;20026;-78
2023/03/14 05:56:18;;;;;;;1.60;0.70;;;10.10;87.10;;;;;;4974012;28;20120;-81
2023/03/14 05:58:44;;;;;;;2.55;0.73;;;10.10;87.10;;;;;;4991667;28;20038;-79
2023/03/14 06:01:09;;;;;;;1.50;0.55;;;10.10;87.10;;;;;;4992503;28;20026;-79
2023/03/14 06:03:35;;;;;;;1.25;0.52;;;10.10;87.00;;;;;;4978286;28;20034;-81
2023/03/14 06:06:01;;;;;;;1.80;0.63;;;10.10;87.10;;;;;;4992569;28;20038;-79
2023/03/14 06:08:26;;;;;;;2.03;0.65;;;10.10;87.10;;;;;;4977855;28;20027;-81
2023/03/14 06:10:52;;;;;;;2.08;0.80;;;10.10;87.10;;;;;;4982160;28;20403;-81
2023/03/14 06:13:18;;;;;;;2.88;0.90;;;10.10;87.00;;;;;;4996657;28;20054;-85
2023/03/14 06:15:44;;;;;;;2.58;0.80;;;10.10;87.10;;;;;;4996741;28;20105;-83
2023/03/14 06:18:09;;;;;;;2.13;0.80;;;10.10;87.00;;;;;;4991303;28;20029;-80
2023/03/14 06:20:39;;;;;;;2.33;0.60;;;10.10;87.00;;;;;;4997562;28;20036;-79
2023/03/14 06:23:05;;;;;;;1.73;0.60;;;10.10;87.00;;;;;;5013686;28;20026;-79
2023/03/14 06:25:31;;;;;;;1.38;0.68;;;10.10;87.00;;;;;;4999756;28;20420;-80
2023/03/14 06:27:57;;;;;;;1.48;0.70;;;10.10;87.10;;;;;;4998962;28;20209;-80
2023/03/14 06:30:22;;;;;;;6.35;1.27;;;10.10;87.10;;;;;;5010467;28;20101;-78
2023/03/14 06:32:48;;;;;;;2.83;0.90;;;10.10;87.50;;;;;;5010853;28;20038;-84
2023/03/14 06:35:13;;;;;;;3.85;1.08;;;10.10;87.10;;;;;;4994765;28;20040;-81
2023/03/14 06:37:39;;;;;;;6.88;1.02;;;10.10;87.30;;;;;;4977354;28;20026;-83
2023/03/14 06:40:07;;;;;;;3.88;0.95;;;10.10;87.60;;;;;;4979051;28;20110;-81
2023/03/14 06:42:32;;;;;;;3.72;0.88;;;10.10;87.60;;;;;;4979268;28;20089;-82
2023/03/14 06:44:58;;;;;;;4.75;1.10;;;10.10;87.40;;;;;;4973941;28;20022;-82
2023/03/14 06:47:23;;;;;;;4.22;0.82;;;10.10;87.40;;;;;;4996653;28;20073;-84
2023/03/14 06:49:49;;;;;;;6.10;1.27;;;10.10;87.40;;;;;;4978381;28;20026;-82
2023/03/14 06:52:14;;;;;;;4.15;0.80;;;10.10;87.40;;;;;;4994687;28;20034;-84
2023/03/14 06:54:40;;;;;;;6.40;1.58;;;10.10;87.30;;;;;;4978413;28;20396;-82
2023/03/14 06:57:05;;;;;;;3.47;0.80;;;10.10;87.20;;;;;;4978255;28;20174;-85
2023/03/14 06:59:30;;;;;;;4.93;0.73;;;10.20;87.20;;;;;;4977769;28;20388;-84
2023/03/14 07:01:56;;;;;;;1.90;0.70;;;10.20;87.30;;;;;;4976816;28;20018;-82
2023/03/14 07:04:21;;;;;;;3.13;0.80;;;10.10;87.20;;;;;;4977641;28;20417;-84
2023/03/14 07:06:47;;;;;;;3.08;0.82;;;10.10;87.00;;;;;;4994586;28;20029;-83
2023/03/14 07:09:13;;;;;;;1.92;0.80;;;10.10;87.10;;;;;;4976344;28;20101;-84
2023/03/14 07:11:39;;;;;;;2.90;0.80;;;10.20;87.10;;;;;;4994276;28;20026;-81
2023/03/14 07:14:05;;;;;;;3.53;0.75;;;10.10;87.00;;;;;;4977010;28;20030;-84
2023/03/14 07:16:32;;;;;;;2.03;0.80;;;10.10;87.10;;;;;;4976958;28;20025;-82
2023/03/14 07:18:59;;;;;;;1.83;0.55;;;10.10;87.10;;;;;;4994772;28;20041;-83
2023/03/14 07:21:24;;;;;;;1.35;0.47;;;10.20;87.20;;;;;;4977060;28;20027;-82
2023/03/14 07:23:50;;;;;;;2.75;0.73;;;10.20;87.20;;;;;;4976786;28;20036;-82
2023/03/14 07:26:15;;;;;;;1.60;0.73;;;10.20;87.30;;;;;;4994400;28;20449;-84
2023/03/14 07:28:41;;;;;;;0.75;0.50;;;10.20;87.20;;;;;;4975939;28;20113;-82
2023/03/14 07:31:07;;;;;;;3.95;0.60;;;10.20;87.10;;;;;;4993523;28;20033;-82
2023/03/14 07:33:32;;;;;;;1.58;0.73;;;10.20;87.10;;;;;;4975890;28;20049;-81
2023/03/14 07:35:58;;;;;;;2.53;0.80;;;10.20;87.20;;;;;;4975638;28;20053;-81
2023/03/14 07:38:23;;;;;;;1.95;0.77;;;10.20;87.00;;;;;;4976229;28;20481;-82
2023/03/14 07:40:49;;;;;;;2.47;0.63;;;10.20;87.00;;;;;;4975787;28;20096;-84
2023/03/14 07:43:14;;;;;;;2.38;0.88;;;10.20;87.00;;;;;;4975559;28;20029;-82
2023/03/14 07:45:40;;;;;;;1.25;0.45;;;10.10;87.00;;;;;;4991716;28;20026;-81
2023/03/14 07:48:05;;;;;;;2.17;0.45;;;10.20;87.10;;;;;;4956357;28;20027;-82
2023/03/14 07:50:31;;;;;;;1.60;0.50;;;10.20;87.00;;;;;;4955562;28;20404;-82
2023/03/14 07:52:56;;;;;;;1.67;0.60;;;10.20;87.00;;;;;;4971981;28;20166;-84
2023/03/14 07:55:22;;;;;;;1.88;0.80;;;10.20;87.00;;;;;;4959905;28;20052;-85
2023/03/14 07:57:47;;;;;;;1.73;0.60;;;10.20;87.00;;;;;;4964601;28;20031;-83
2023/03/14 08:00:14;;;;;;;2.13;0.60;;;10.20;87.00;;;;;;4982813;28;20086;-82
2023/03/14 08:02:40;;;;;;;2.70;0.75;;;10.10;86.90;;;;;;4981104;28;20031;-82
2023/03/14 08:05:06;;;;;;;1.52;0.50;;;10.20;87.00;;;;;;4980759;28;20026;-82
2023/03/14 08:07:32;;;;;;;1.58;0.60;;;10.20;87.00;;;;;;4980259;28;20031;-82
2023/03/14 08:09:57;;;;;;;1.00;0.60;;;10.20;86.90;;;;;;4964184;28;20097;-84
2023/03/14 08:12:22;;;;;;;2.55;0.57;;;10.20;86.90;;;;;;4980750;28;20031;-82
2023/03/14 08:14:48;;;;;;;2.25;0.73;;;10.20;87.00;;;;;;4963645;28;20552;-84
2023/03/14 08:17:13;;;;;;;2.20;0.73;;;10.20;87.00;;;;;;4962977;28;20019;-83
2023/03/14 08:19:41;;;;;;;1.65;0.50;;;10.20;87.00;;;;;;4980273;28;20497;-84
2023/03/14 08:22:06;;;;;;;3.58;0.60;;;10.20;87.00;;;;;;4980073;28;20511;-84
2023/03/14 08:24:32;;;;;;;2.03;0.55;;;10.20;87.00;;;;;;4962999;28;20018;-84
2023/03/14 08:26:57;;;;;;;0.93;0.52;;;10.10;86.90;;;;;;4978039;28;20030;-83
2023/03/14 08:29:23;;;;;;;1.17;0.40;;;10.20;86.90;;;;;;4962437;28;20612;-83
2023/03/14 08:31:48;;;;;;;2.20;0.70;;;10.20;87.00;;;;;;4961867;28;20027;-84
2023/03/14 08:34:15;;;;;;;1.38;0.50;;;10.20;87.00;;;;;;4978134;28;20037;-84
2023/03/14 08:36:40;;;;;;;1.30;0.50;;;10.20;86.90;;;;;;4961457;28;20056;-84
2023/03/14 08:39:07;;;;;;;0.82;0.50;;;10.20;87.00;;;;;;4977748;28;20031;-83
2023/03/14 08:41:33;;;;;;;2.55;0.88;;;10.20;87.00;;;;;;4974701;28;20023;-82
2023/03/14 08:43:58;;;;;;;0.95;0.55;;;10.20;87.00;;;;;;4977165;28;20027;-84
2023/03/14 08:46:24;;;;;;;0.68;0.50;;;10.20;87.00;;;;;;4980514;28;20031;-85
2023/03/14 08:48:49;;;;;;;0.63;0.50;;;10.20;87.00;;;;;;4964566;28;20486;-84
2023/03/14 08:53:42;;;;;;;2.70;1.10;;;10.20;86.90;;;;;;5014979;23;20076;-81
2023/03/14 08:56:09;;;;;;;0.93;0.52;;;10.20;86.90;;;;;;4978649;28;20485;-81
2023/03/14 08:58:37;;;;;;;2.03;0.60;;;10.20;86.90;;;;;;4978687;28;20034;-81
2023/03/14 09:01:04;;;;;;;0.57;0.50;;;10.20;86.80;;;;;;4978355;28;20496;-81
2023/03/14 09:03:29;;;;;;;1.70;0.55;;;10.30;86.90;;;;;;4978298;28;20030;-79
2023/03/14 09:05:55;;;;;;;0.70;0.60;;;10.20;86.80;;;;;;4978461;28;20035;-81
2023/03/14 09:08:20;;;;;;;1.38;0.65;;;10.30;86.90;;;;;;4978361;28;20023;-82
2023/03/14 09:10:46;;;;;;;2.63;0.65;;;10.30;86.90;;;;;;4978115;28;20060;-81
2023/03/14 09:13:11;;;;;;;1.15;0.60;;;10.20;86.80;;;;;;4978316;28;20484;-81
2023/03/14 09:15:37;;;;;;;1.55;0.60;;;10.30;86.80;;;;;;4995861;28;20022;-81
2023/03/14 09:18:02;;;;;;;2.03;0.90;;;10.20;86.80;;;;;;4978222;28;20027;-84
2023/03/14 09:20:28;;;;;;;1.38;0.68;;;10.20;86.80;;;;;;4977889;28;20054;-80
2023/03/14 09:22:53;;;;;;;1.85;0.80;;;10.20;86.90;;;;;;4995546;28;20030;-82
2023/03/14 09:25:19;;;;;;;1.67;0.82;;;10.30;86.80;;;;;;4978140;28;20058;-81
2023/03/14 09:27:44;;;;;;;1.40;0.60;;;10.20;86.80;;;;;;4977918;28;20037;-81
2023/03/14 09:30:10;;;;;;;0.85;0.55;;;10.20;86.80;;;;;;4977823;28;20061;-80
2023/03/14 09:32:36;;;;;;;1.08;0.60;;;10.20;86.80;;;;;;4977911;28;20031;-82
2023/03/14 09:35:02;;;;;;;1.27;0.80;;;10.30;86.90;;;;;;4977804;28;20019;-82
2023/03/14 09:37:27;;;;;;;1.17;0.70;;;10.30;86.80;;;;;;4977743;28;20480;-81
2023/03/14 09:39:53;;;;;;;1.63;0.80;;;10.30;86.80;;;;;;4977898;28;20081;-81
2023/03/14 09:42:23;;;;;;;1.83;0.70;;;10.30;86.80;;;;;;4977729;28;20441;-82
2023/03/14 09:44:58;;;;;;;3.47;1.00;;;10.30;86.80;;;;;;4977627;28;20026;-81
2023/03/14 09:47:26;;;;;;;1.30;0.77;;;10.30;86.90;;;;;;4977972;28;20026;-81
2023/03/14 09:49:52;;;;;;;2.15;0.90;;;10.30;86.90;;;;;;4977618;28;20026;-81
2023/03/14 09:52:24;;;;;;;1.27;0.80;;;10.30;86.90;;;;;;4977384;28;20125;-81
2023/03/14 09:55:07;;;;;;;2.08;0.80;;;10.30;86.90;;;;;;4977560;28;20029;-81
2023/03/14 09:57:35;;;;;;;1.45;0.70;;;10.30;87.00;;;;;;4977601;28;20106;-81
2023/03/14 10:00:14;;;;;;;1.67;0.82;;;10.30;86.90;;;;;;4977662;28;20059;-81
2023/03/14 10:02:42;;;;;;;1.38;0.70;;;10.20;86.90;;;;;;4977444;28;20039;-82
2023/03/14 10:05:18;;;;;;;1.35;0.98;;;10.30;86.90;;;;;;4976039;28;20121;-81
2023/03/14 10:07:43;;;;;;;1.30;0.98;;;10.30;86.90;;;;;;4976795;28;20034;-81
2023/03/14 10:10:13;;;;;;;1.20;0.80;;;10.30;86.90;;;;;;4994644;28;20041;-81
2023/03/14 10:12:38;;;;;;;2.47;0.82;;;10.30;86.90;;;;;;4977138;28;20023;-80
2023/03/14 10:15:08;;;;;;;1.80;1.10;;;10.20;86.80;;;;;;4977213;28;20082;-82
2023/03/14 10:17:47;;;;;;;1.15;0.90;;;10.30;86.80;;;;;;4977089;28;20024;-81
2023/03/14 10:20:35;;;;;;;1.90;0.80;;;10.30;86.80;;;;;;4976973;28;20022;-81
2023/03/14 10:23:18;;;;;;;2.28;1.20;;;10.30;86.80;;;;;;4977070;28;20117;-81
2023/03/14 10:25:46;;;;;;;1.48;1.08;;;10.30;87.20;;;;;;4977064;28;20034;-81
2023/03/14 10:28:45;;;;;;;1.60;1.08;;;10.30;87.60;;;;;;4976881;28;20117;-81
2023/03/14 10:31:10;;;;;;;1.70;1.10;;;10.30;87.60;;;;;;4977039;28;20030;-80
2023/03/14 10:33:37;;;;;;;2.00;1.10;;;10.30;87.90;;;;;;4976934;28;20374;-80
2023/03/14 10:36:05;;;;;;;2.15;1.30;;;10.30;87.90;;;;;;4994447;28;20022;-80
2023/03/14 10:38:34;;;;;;;1.77;1.17;;;10.30;88.20;;;;;;4976610;28;20109;-82
2023/03/14 10:41:01;;;;;;;2.75;1.42;;;10.30;88.30;;;;;;4976670;28;20147;-82
2023/03/14 10:43:35;;;;;;;1.90;1.23;;;10.30;88.50;;;;;;4994315;28;20026;-80
2023/03/14 10:46:08;;;;;;;2.50;1.30;;;10.30;88.60;;;;;;4976509;28;20069;-80
2023/03/14 10:48:37;;;;;;;1.80;1.20;;;10.30;88.70;;;;;;4976715;28;20041;-82
2023/03/14 10:51:34;;;;;;;2.03;1.20;;;10.30;88.90;;;;;;4976392;28;20030;-80
2023/03/14 10:54:18;;;;;;;1.48;1.10;;;10.30;89.00;;;;;;4974454;28;20090;-82
2023/03/14 10:56:44;;;;;;;2.15;1.15;;;10.30;89.10;;;;;;4993893;28;20026;-80
2023/03/14 10:59:15;;;;;;;1.65;1.20;;;10.20;89.00;;;;;;4976867;28;20485;-80
2023/03/14 11:01:49;;;;;;;1.63;1.00;;;10.30;89.20;;;;;;4976230;28;20022;-80
2023/03/14 11:04:37;;;;;;;1.77;1.23;;;10.20;89.00;;;;;;4976511;28;20481;-80
2023/03/14 11:07:19;;;;;;;1.85;1.00;;;10.20;89.00;;;;;;4976079;28;20026;-81
2023/03/14 11:10:08;;;;;;;1.75;1.00;;;10.20;89.00;;;;;;4993699;28;20030;-81
2023/03/14 11:12:48;;;;;;;2.63;1.10;;;10.20;88.80;;;;;;4993372;28;20496;-85
2023/03/14 11:15:34;;;;;;;1.20;1.00;;;10.20;88.70;;;;;;4975605;28;20026;-82
2023/03/14 11:18:20;;;;;;;1.38;0.90;;;10.20;88.70;;;;;;4993364;28;20397;-81
2023/03/14 11:21:13;;;;;;;1.33;0.98;;;10.20;88.60;;;;;;4975725;28;20401;-84
2023/03/14 11:24:09;;;;;;;1.33;0.85;;;10.20;88.50;;;;;;4976124;28;20030;-83
2023/03/14 11:26:46;;;;;;;1.00;0.73;;;10.20;88.40;;;;;;4993503;28;20081;-81
2023/03/14 11:29:30;;;;;;;1.50;0.80;;;10.20;88.20;;;;;;4975926;28;20022;-81
2023/03/14 11:32:00;;;;;;;1.27;0.80;;;10.20;88.00;;;;;;4993056;28;20101;-78
2023/03/14 11:34:33;;;;;;;1.50;0.70;;;10.20;87.80;;;;;;4975924;28;20050;-80
2023/03/14 11:37:06;;;;;;;1.77;1.00;;;10.30;87.60;;;;;;4993011;28;20027;-81
2023/03/14 11:39:47;;;;;;;1.20;0.70;;;10.20;87.40;;;;;;4975714;28;20026;-81
2023/03/14 11:42:16;;;;;;;1.53;0.80;;;10.30;87.20;;;;;;4975796;28;20019;-80
2023/03/14 11:44:46;;;;;;;0.60;0.60;;;10.20;87.00;;;;;;4975785;28;20046;-80
2023/03/14 11:47:30;;;;;;;1.80;0.80;;;10.30;86.90;;;;;;4993217;28;20583;-80
2023/03/14 11:50:18;;;;;;;1.38;0.63;;;10.30;86.80;;;;;;4975714;28;20030;-80
2023/03/14 11:52:53;;;;;;;1.23;0.90;;;10.30;86.70;;;;;;4992746;28;20033;-77
2023/03/14 11:55:32;;;;;;;2.20;0.90;;;10.30;86.50;;;;;;4975773;28;20117;-80
2023/03/14 11:58:11;;;;;;;1.35;0.85;;;10.30;86.50;;;;;;4993219;28;20477;-80
2023/03/14 12:00:40;;;;;;;0.93;0.70;;;10.30;86.40;;;;;;4975775;28;20030;-80
2023/03/14 12:03:49;;;;;;;1.45;0.68;;;10.40;86.30;;;;;;4975409;28;20052;-80
2023/03/14 12:06:29;;;;;;;0.90;0.60;;;10.30;86.20;;;;;;4962680;28;20034;-82
2023/03/14 12:09:06;;;;;;;1.75;0.70;;;10.30;86.10;;;;;;4975436;28;20042;-80
2023/03/14 12:11:52;;;;;;;1.30;0.70;;;10.30;86.10;;;;;;4991528;28;20022;-81
2023/03/14 12:14:22;;;;;;;2.20;0.60;;;10.40;86.00;;;;;;4975621;28;20034;-80
2023/03/14 12:16:48;;;;;;;2.10;0.80;;;10.40;86.00;;;;;;4975388;28;20308;-80
2023/03/14 12:19:25;;;;;;;2.17;0.60;;;10.40;86.00;;;;;;4975476;28;20026;-82
2023/03/14 12:22:24;;;;;;;1.63;0.60;;;10.40;86.00;;;;;;4975093;28;20026;-81
2023/03/14 12:24:55;;;;;;;1.23;0.70;;;10.40;85.90;;;;;;4975095;28;20030;-81
2023/03/14 12:27:45;;;;;;;1.33;0.73;;;10.40;85.80;;;;;;4975952;28;20181;-80
2023/03/14 12:30:16;;;;;;;2.03;0.67;;;10.40;85.70;;;;;;4996630;28;20026;-79
2023/03/14 12:32:42;;;;;;;1.35;0.70;;;10.40;85.70;;;;;;4996767;28;20384;-82
2023/03/14 12:35:34;;;;;;;1.67;0.60;;;10.40;85.60;;;;;;4996556;28;20035;-80
2023/03/14 12:38:04;;;;;;;1.52;0.50;;;10.40;85.60;;;;;;4979142;28;20165;-80
2023/03/14 12:40:38;;;;;;;2.17;0.57;;;10.40;85.50;;;;;;4978980;28;20129;-80
2023/03/14 12:43:24;;;;;;;1.10;0.60;;;10.40;85.50;;;;;;4979031;28;20065;-80
2023/03/14 12:46:17;;;;;;;1.50;0.80;;;10.40;85.50;;;;;;4979184;28;20043;-80
2023/03/14 12:48:54;;;;;;;1.48;0.70;;;10.40;85.50;;;;;;4978760;28;20026;-81
2023/03/14 12:51:37;;;;;;;0.60;0.60;;;10.40;85.50;;;;;;4978591;28;20026;-81
2023/03/14 12:54:21;;;;;;;2.30;0.65;;;10.40;85.50;;;;;;4978827;28;20061;-80
2023/03/14 12:57:01;;;;;;;1.98;0.52;;;10.40;85.50;;;;;;4978711;28;20026;-81
2023/03/14 12:59:40;;;;;;;1.52;0.73;;;10.40;85.50;;;;;;4978714;28;20113;-80
2023/03/14 13:02:05;;;;;;;1.40;0.50;;;10.40;85.60;;;;;;4978415;28;20496;-80
2023/03/14 13:04:42;;;;;;;1.63;0.70;;;10.40;85.60;;;;;;4978743;28;20033;-80
2023/03/14 13:07:31;;;;;;;1.83;0.65;;;10.40;85.60;;;;;;4978412;28;20018;-80
2023/03/14 13:09:59;;;;;;;1.98;0.60;;;10.40;85.60;;;;;;4995996;28;20015;-80
2023/03/14 13:12:32;;;;;;;2.28;0.75;;;10.40;85.50;;;;;;4995624;28;20473;-80
2023/03/14 13:14:59;;;;;;;1.45;0.70;;;10.30;85.50;;;;;;4978481;28;20030;-80
2023/03/14 13:17:33;;;;;;;1.75;0.70;;;10.40;85.50;;;;;;4978339;28;20077;-81
2023/03/14 13:20:05;;;;;;;2.38;0.60;;;10.30;85.50;;;;;;4978240;28;20026;-80
2023/03/14 13:22:36;;;;;;;1.88;0.65;;;10.30;85.50;;;;;;4978394;28;20034;-80
2023/03/14 13:25:06;;;;;;;1.77;0.65;;;10.30;85.50;;;;;;4978483;28;20454;-80
2023/03/14 13:27:33;;;;;;;2.45;0.70;;;10.30;85.50;;;;;;4995831;28;20049;-80
2023/03/14 13:30:25;;;;;;;3.17;0.85;;;10.40;85.50;;;;;;4978293;28;20026;-82
2023/03/14 13:32:52;;;;;;;2.25;0.80;;;10.30;85.40;;;;;;4977543;28;20035;-83
2023/03/14 13:35:29;;;;;;;2.45;0.80;;;10.30;85.40;;;;;;4995656;28;20504;-80
2023/03/14 13:38:00;;;;;;;1.70;0.70;;;10.40;85.50;;;;;;4995310;28;20089;-80
2023/03/14 13:40:32;;;;;;;2.40;0.68;;;10.40;85.40;;;;;;4995347;28;20031;-80
2023/03/14 13:43:13;;;;;;;1.70;0.63;;;10.40;85.50;;;;;;4977831;28;20031;-80
2023/03/14 13:45:46;;;;;;;2.30;0.60;;;10.30;85.40;;;;;;4977580;28;20113;-81
2023/03/14 13:48:14;;;;;;;2.20;0.75;;;10.40;85.60;;;;;;4977852;28;20038;-81
2023/03/14 13:50:52;;;;;;;1.83;0.70;;;10.40;85.40;;;;;;4977399;28;20026;-80
2023/03/14 13:53:17;;;;;;;1.83;0.70;;;10.40;85.40;;;;;;4977630;28;20095;-80
2023/03/14 13:55:43;;;;;;;1.73;0.80;;;10.40;85.40;;;;;;4978138;28;20022;-80
2023/03/14 13:58:24;;;;;;;2.55;0.75;;;10.30;85.30;;;;;;4995348;28;20488;-80
2023/03/14 14:01:11;;;;;;;1.98;0.60;;;10.40;85.40;;;;;;4993741;28;20057;-79
2023/03/14 14:03:40;;;;;;;2.85;0.80;;;10.40;85.30;;;;;;4977503;28;20112;-80
2023/03/14 14:06:16;;;;;;;2.38;0.80;;;10.40;85.30;;;;;;4977543;28;20113;-82
2023/03/14 14:08:42;;;;;;;5.20;1.00;;;10.40;85.20;;;;;;4977147;28;20030;-81
2023/03/14 14:11:12;;;;;;;5.15;0.90;;;10.40;85.10;;;;;;4977574;28;20030;-80
2023/03/14 14:13:38;;;;;;;3.47;0.70;;;10.40;85.00;;;;;;4993720;28;20511;-82
2023/03/14 14:16:04;;;;;;;3.55;1.13;;;10.40;85.00;;;;;;4977481;28;20026;-80
2023/03/14 14:18:31;;;;;;;2.92;0.90;;;10.40;85.00;;;;;;4994823;28;20014;-80
2023/03/14 14:20:57;;;;;;;6.05;1.17;;;10.40;85.00;;;;;;4977162;28;20495;-80
2023/03/14 14:23:28;;;;;;;5.80;1.00;;;10.40;85.00;;;;;;4994767;28;20030;-80
2023/03/14 14:25:55;;;;;;;3.87;0.97;;;10.40;84.90;;;;;;4993407;28;20472;-80
2023/03/14 14:28:29;;;;;;;4.15;0.80;;;10.40;84.80;;;;;;4994448;28;20034;-80
2023/03/14 14:31:20;;;;;;;3.47;1.00;;;10.40;84.70;;;;;;4976871;28;20029;-80
2023/03/14 14:33:57;;;;;;;4.38;1.00;;;10.40;84.70;;;;;;4976994;28;20033;-86
2023/03/14 14:36:29;;;;;;;3.80;0.90;;;10.40;85.10;;;;;;4977117;28;20030;-80
2023/03/14 14:38:59;;;;;;;4.43;1.17;;;10.50;84.60;;;;;;4977062;28;20396;-81
2023/03/14 14:41:32;;;;;;;3.38;1.13;;;10.40;84.60;;;;;;4976792;28;20117;-80
2023/03/14 14:43:58;;;;;;;2.85;0.90;;;10.40;84.50;;;;;;4976756;28;20026;-80
2023/03/14 14:46:27;;;;;;;3.28;0.90;;;10.50;84.50;;;;;;4976841;28;20034;-80
2023/03/14 14:48:57;;;;;;;4.15;1.17;;;10.50;84.40;;;;;;4976770;28;20057;-81
2023/03/14 14:51:25;;;;;;;4.78;1.00;;;10.50;84.30;;;;;;4975701;28;20029;-80
2023/03/14 14:54:09;;;;;;;4.70;1.10;;;10.50;84.30;;;;;;5051058;23;20050;-83
2023/03/14 14:56:37;;;;;;;4.68;1.13;;;10.50;84.40;;;;;;4976560;28;20089;-83
2023/03/14 14:59:05;;;;;;;4.82;0.90;;;10.50;84.30;;;;;;4979217;28;20117;-84
2023/03/14 15:01:36;;;;;;;3.17;0.90;;;10.40;84.20;;;;;;4985418;28;20030;-85
2023/03/14 15:04:09;;;;;;;4.95;1.15;;;10.50;84.20;;;;;;4985094;28;20077;-84
2023/03/14 15:06:35;;;;;;;5.05;1.20;;;10.50;84.30;;;;;;5002665;28;20540;-84
2023/03/14 15:09:00;;;;;;;5.20;1.35;;;10.50;84.20;;;;;;4985028;28;20057;-84
2023/03/14 15:11:26;;;;;;;5.45;1.02;;;10.50;84.20;;;;;;5002388;28;20038;-83
2023/03/14 15:13:53;;;;;;;4.07;1.00;;;10.40;84.00;;;;;;4983808;28;20026;-84
2023/03/14 15:16:21;;;;;;;3.72;1.10;;;10.40;84.00;;;;;;5001369;28;20022;-83
2023/03/14 15:18:55;;;;;;;5.90;1.17;;;10.40;84.10;;;;;;4984306;28;20028;-83
2023/03/14 15:21:21;;;;;;;5.65;1.00;;;10.40;84.00;;;;;;4984084;28;20026;-83
2023/03/14 15:23:47;;;;;;;5.15;1.00;;;10.40;84.00;;;;;;4986876;28;20045;-82
2023/03/14 15:26:19;;;;;;;6.18;1.20;;;10.40;83.90;;;;;;4985353;28;20030;-83
2023/03/14 15:28:46;;;;;;;4.38;1.00;;;10.40;83.90;;;;;;4986092;28;20058;-82
2023/03/14 15:31:12;;;;;;;6.20;1.60;;;10.40;84.00;;;;;;4987712;28;20424;-84
2023/03/14 15:33:38;;;;;;;4.95;1.23;;;10.40;83.70;;;;;;4984672;28;20037;-82
2023/03/14 15:36:06;;;;;;;6.05;1.05;;;10.40;83.70;;;;;;5003549;28;20384;-82
2023/03/14 15:38:32;;;;;;;5.47;1.02;;;10.40;83.50;;;;;;5002890;28;20018;-82
2023/03/14 15:40:57;;;;;;;5.03;1.10;;;10.40;83.30;;;;;;5000965;28;20061;-82
2023/03/14 15:43:23;;;;;;;5.40;1.10;;;10.40;83.20;;;;;;4982862;28;20026;-81
2023/03/14 15:45:50;;;;;;;5.38;1.10;;;10.40;83.20;;;;;;5000469;28;20034;-81
2023/03/14 15:48:19;;;;;;;5.80;1.10;;;10.40;83.30;;;;;;5000590;28;20082;-81
2023/03/14 15:50:45;;;;;;;5.45;1.23;;;10.40;83.20;;;;;;5003090;28;20031;-82
2023/03/14 15:53:11;;;;;;;6.82;1.17;;;10.40;83.10;;;;;;5005204;28;20034;-83